createdAt,value
2019-04-25T00:02:05.646Z,21.68
2019-04-25T00:04:35.126Z,25.77
2019-04-25T00:07:04.646Z,20.72
2019-04-25T00:09:37.526Z,22.20
2019-04-25T00:12:07.396Z,22.80
2019-04-25T00:14:38.003Z,25.92
2019-04-25T00:17:07.632Z,20.10
2019-04-25T00:19:37.018Z,20.03
2019-04-25T00:22:13.880Z,22.67
2019-04-25T00:24:52.041Z,25.40
2019-04-25T00:27:23.761Z,16.42
2019-04-25T00:29:53.378Z,20.30
2019-04-25T00:32:23.177Z,16.33
2019-04-25T00:34:52.854Z,21.77
2019-04-25T00:37:22.609Z,25.70
2019-04-25T00:39:52.098Z,15.63
2019-04-25T00:42:23.125Z,19.00
2019-04-25T00:44:52.637Z,17.40
2019-04-25T00:47:22.276Z,17.67
2019-04-25T00:49:52.407Z,17.05
2019-04-25T00:52:22.876Z,20.27
2019-04-25T00:54:53.463Z,23.83
2019-04-25T00:57:23.520Z,22.55
2019-04-25T00:59:57.242Z,20.70
2019-04-25T01:02:37.213Z,15.48
2019-04-25T01:05:07.628Z,15.83
2019-04-25T01:07:37.098Z,18.37
2019-04-25T01:10:08.555Z,26.17
2019-04-25T01:12:37.950Z,22.20
2019-04-25T01:15:09.412Z,16.80
2019-04-25T01:17:38.872Z,17.83
2019-04-25T01:20:08.861Z,20.10
2019-04-25T01:22:38.255Z,18.30
2019-04-25T01:25:09.679Z,20.85
2019-04-25T01:27:39.229Z,21.03
2019-04-25T01:30:09.833Z,15.30
2019-04-25T01:32:39.276Z,21.17
2019-04-25T01:35:27.056Z,17.00
2019-04-25T01:37:58.082Z,18.90
2019-04-25T01:40:29.272Z,23.60
2019-04-25T01:43:00.444Z,14.87
2019-04-25T01:45:33.838Z,17.03
2019-04-25T01:48:03.580Z,14.30
2019-04-25T01:50:35.265Z,19.42
2019-04-25T01:53:05.060Z,16.48
2019-04-25T01:55:35.733Z,18.37
2019-04-25T01:58:07.200Z,14.05
2019-04-25T02:00:47.578Z,23.00
2019-04-25T02:03:17.145Z,13.18
2019-04-25T02:05:46.531Z,12.05
2019-04-25T02:08:16.019Z,17.80
2019-04-25T02:10:47.042Z,12.00
2019-04-25T02:13:20.840Z,14.97
2019-04-25T02:15:50.666Z,20.52
2019-04-25T02:18:20.887Z,23.00
2019-04-25T02:20:51.549Z,17.20
2019-04-25T02:23:21.705Z,21.00
2019-04-25T02:26:04.625Z,16.35
2019-04-25T02:28:23.999Z,14.53
2019-04-25T02:30:57.367Z,14.70
2019-04-25T02:33:24.739Z,18.17
2019-04-25T02:35:57.864Z,14.47
2019-04-25T02:38:29.141Z,20.20
2019-04-25T02:41:01.986Z,17.97
2019-04-25T02:43:31.336Z,17.27
2019-04-25T02:46:11.888Z,15.08
2019-04-25T02:49:02.398Z,37.07
2019-04-25T02:51:45.253Z,21.83
2019-04-25T02:54:14.973Z,15.30
2019-04-25T02:56:46.640Z,18.83
2019-04-25T02:59:15.498Z,13.87
2019-04-25T03:01:46.003Z,17.98
2019-04-25T03:04:15.385Z,14.67
2019-04-25T03:06:45.464Z,20.47
2019-04-25T03:09:15.613Z,15.83
2019-04-25T03:11:47.573Z,21.77
2019-04-25T03:14:16.302Z,18.47
2019-04-25T03:16:45.756Z,16.87
2019-04-25T03:19:16.792Z,12.43
2019-04-25T03:21:51.158Z,12.80
2019-04-25T03:24:20.621Z,7.75
2019-04-25T03:26:50.539Z,12.57
2019-04-25T03:29:21.802Z,17.33
2019-04-25T03:31:52.333Z,16.50
2019-04-25T03:34:25.081Z,19.02
2019-04-25T03:36:54.053Z,19.50
2019-04-25T03:39:27.061Z,11.80
2019-04-25T03:41:56.513Z,13.38
2019-04-25T03:44:25.922Z,31.65
2019-04-25T03:46:55.312Z,21.30
2019-04-25T03:49:25.090Z,19.17
2019-04-25T03:51:54.555Z,20.80
2019-04-25T03:54:23.945Z,19.32
2019-04-25T03:56:55.605Z,16.97
2019-04-25T03:59:24.447Z,18.30
2019-04-25T04:01:54.293Z,19.75
2019-04-25T04:04:23.882Z,20.75
2019-04-25T04:06:53.873Z,24.98
2019-04-25T04:09:24.173Z,14.70
2019-04-25T04:11:53.996Z,13.43
2019-04-25T04:14:24.228Z,23.25
2019-04-25T04:17:14.698Z,22.58
2019-04-25T04:22:45.716Z,17.67
2019-04-25T04:25:16.763Z,18.57
2019-04-25T04:27:46.162Z,26.12
2019-04-25T04:30:16.495Z,26.62
2019-04-25T04:32:46.846Z,16.40
2019-04-25T04:35:17.480Z,20.32
2019-04-25T04:37:47.019Z,18.32
2019-04-25T04:40:18.277Z,22.98
2019-04-25T04:42:47.523Z,22.05
2019-04-25T04:45:16.995Z,39.40
2019-04-25T04:47:46.390Z,23.22
2019-04-25T04:50:16.620Z,17.75
2019-04-25T04:52:46.193Z,25.23
2019-04-25T04:55:17.223Z,21.82
2019-04-25T04:57:46.673Z,17.67
2019-04-25T05:00:16.847Z,15.60
2019-04-25T05:02:50.363Z,14.33
2019-04-25T05:05:23.152Z,19.07
2019-04-25T05:07:54.194Z,15.18
2019-04-25T05:10:24.563Z,18.40
2019-04-25T05:12:54.062Z,14.87
2019-04-25T05:15:24.828Z,17.85
2019-04-25T05:17:54.431Z,29.17
2019-04-25T05:20:24.286Z,18.52
2019-04-25T05:22:54.914Z,21.45
2019-04-25T05:25:24.896Z,21.40
2019-04-25T05:28:02.883Z,20.13
2019-04-25T05:30:40.303Z,17.50
2019-04-25T05:33:09.708Z,21.00
2019-04-25T05:35:39.098Z,22.93
2019-04-25T05:38:08.488Z,23.77
2019-04-25T05:40:39.532Z,20.17
2019-04-25T05:43:10.627Z,18.17
2019-04-25T05:45:40.084Z,33.40
2019-04-25T05:48:09.472Z,26.40
2019-04-25T05:50:38.886Z,19.42
2019-04-25T05:53:08.308Z,24.45
2019-04-25T05:55:37.695Z,33.17
2019-04-25T05:58:07.099Z,15.38
2019-04-25T06:00:36.481Z,19.98
2019-04-25T06:03:05.883Z,18.98
2019-04-25T06:05:35.343Z,26.30
2019-04-25T06:08:05.039Z,33.18
2019-04-25T06:10:36.623Z,18.02
2019-04-25T06:13:13.778Z,23.53
2019-04-25T06:15:45.057Z,22.20
2019-04-25T06:18:16.079Z,21.90
2019-04-25T06:20:45.754Z,27.77
2019-04-25T06:23:16.855Z,12.50
2019-04-25T06:25:46.375Z,23.63
2019-04-25T06:28:23.999Z,28.35
2019-04-25T06:30:54.233Z,20.00
2019-04-25T06:33:24.676Z,26.00
2019-04-25T06:35:56.759Z,21.73
2019-04-25T06:38:27.252Z,13.70
2019-04-25T06:40:57.224Z,16.55
2019-04-25T06:43:26.782Z,15.43
2019-04-25T06:46:14.206Z,13.08
2019-04-25T06:48:45.688Z,20.85
2019-04-25T06:51:15.071Z,12.07
2019-04-25T06:53:44.455Z,10.18
2019-04-25T06:56:13.912Z,15.88
2019-04-25T06:58:44.286Z,14.05
2019-04-25T07:01:13.728Z,13.18
2019-04-25T07:03:44.197Z,16.25
2019-04-25T07:06:15.125Z,15.20
2019-04-25T07:08:44.937Z,10.40
2019-04-25T07:11:14.475Z,16.52
2019-04-25T07:13:44.003Z,11.68
2019-04-25T07:16:13.564Z,11.63
2019-04-25T07:18:43.572Z,8.77
2019-04-25T07:21:14.292Z,11.97
2019-04-25T07:23:46.285Z,10.93
2019-04-25T07:26:17.384Z,14.70
2019-04-25T07:28:57.497Z,10.65
2019-04-25T07:31:33.140Z,10.57
2019-04-25T07:34:04.257Z,12.00
2019-04-25T07:36:35.101Z,9.70
2019-04-25T07:39:10.521Z,17.47
2019-04-25T07:41:39.703Z,17.32
2019-04-25T07:44:09.083Z,7.87
2019-04-25T07:46:39.948Z,13.62
2019-04-25T07:49:10.309Z,10.43
2019-04-25T07:51:39.949Z,14.35
2019-04-25T07:54:09.339Z,10.38
2019-04-25T07:56:38.866Z,9.90
2019-04-25T07:59:08.640Z,13.85
2019-04-25T08:01:39.087Z,18.35
2019-04-25T08:04:08.543Z,10.45
2019-04-25T08:06:38.059Z,9.73
2019-04-25T08:09:10.960Z,13.68
2019-04-25T08:11:40.760Z,10.80
2019-04-25T08:14:21.779Z,16.15
2019-04-25T08:17:07.867Z,13.38
2019-04-25T08:19:37.958Z,18.02
2019-04-25T08:22:07.481Z,8.85
2019-04-25T08:24:37.852Z,20.52
2019-04-25T08:27:07.483Z,8.98
2019-04-25T08:29:39.213Z,8.58
2019-04-25T08:32:08.096Z,7.12
2019-04-25T08:34:38.537Z,16.62
2019-04-25T08:37:18.130Z,10.26
2019-04-25T08:39:41.815Z,8.45
2019-04-25T08:42:11.198Z,15.57
2019-04-25T08:44:41.352Z,10.16
2019-04-25T08:47:10.855Z,9.42
2019-04-25T08:49:44.126Z,11.97
2019-04-25T08:52:13.291Z,16.40
2019-04-25T08:54:47.176Z,8.08
2019-04-25T08:57:19.707Z,7.83
2019-04-25T08:59:55.597Z,11.43
2019-04-25T09:02:38.947Z,7.23
2019-04-25T09:05:24.394Z,9.88
2019-04-25T09:07:54.385Z,23.47
2019-04-25T09:10:24.303Z,10.08
2019-04-25T09:12:53.891Z,9.67
2019-04-25T09:15:24.202Z,5.05
2019-04-25T09:17:54.902Z,7.53
2019-04-25T09:20:24.521Z,6.30
2019-04-25T09:22:54.377Z,10.60
2019-04-25T09:25:24.208Z,7.93
2019-04-25T09:27:54.374Z,8.53
2019-04-25T09:30:24.256Z,7.30
2019-04-25T09:32:53.758Z,6.63
2019-04-25T09:35:23.739Z,7.45
2019-04-25T09:37:54.244Z,11.60
2019-04-25T09:40:24.124Z,5.10
2019-04-25T09:42:53.882Z,4.55
2019-04-25T09:45:41.556Z,5.17
2019-04-25T09:48:13.282Z,3.05
2019-04-25T09:50:45.421Z,7.43
2019-04-25T09:53:23.617Z,7.23
2019-04-25T09:55:54.152Z,3.17
2019-04-25T09:58:28.548Z,7.00
2019-04-25T10:01:13.772Z,8.53
2019-04-25T10:03:45.413Z,3.60
2019-04-25T10:06:17.910Z,4.00
2019-04-25T10:08:47.533Z,7.33
2019-04-25T10:11:17.508Z,5.40
2019-04-25T10:14:08.345Z,5.50
2019-04-25T10:16:37.956Z,7.00
2019-04-25T10:19:08.431Z,4.33
2019-04-25T10:21:38.075Z,5.60
2019-04-25T10:24:07.557Z,5.03
2019-04-25T10:26:38.592Z,9.90
2019-04-25T10:29:09.247Z,5.20
2019-04-25T10:31:38.804Z,4.97
2019-04-25T10:34:08.265Z,7.20
2019-04-25T10:36:39.884Z,5.57
2019-04-25T10:39:11.121Z,2.57
2019-04-25T10:41:41.395Z,7.37
2019-04-25T10:44:14.007Z,5.22
2019-04-25T10:46:46.843Z,4.53
2019-04-25T10:49:14.619Z,6.23
2019-04-25T10:51:45.806Z,4.90
2019-04-25T10:54:15.275Z,4.08
2019-04-25T10:56:46.867Z,5.55
2019-04-25T10:59:15.877Z,4.63
2019-04-25T11:01:46.374Z,5.90
2019-04-25T11:04:20.321Z,3.95
2019-04-25T11:06:49.789Z,5.58
2019-04-25T11:09:21.745Z,2.40
2019-04-25T11:11:51.208Z,6.93
2019-04-25T11:14:20.734Z,5.72
2019-04-25T11:16:50.438Z,5.07
2019-04-25T11:19:19.941Z,3.05
2019-04-25T11:21:49.457Z,4.20
2019-04-25T11:24:19.120Z,4.53
2019-04-25T11:26:50.455Z,4.45
2019-04-25T11:29:19.767Z,3.63
2019-04-25T11:31:49.397Z,4.25
2019-04-25T11:34:19.024Z,4.80
2019-04-25T11:36:48.511Z,4.10
2019-04-25T11:39:36.838Z,4.70
2019-04-25T11:42:08.143Z,2.75
2019-04-25T11:44:38.056Z,3.60
2019-04-25T11:47:08.662Z,4.05
2019-04-25T11:49:38.789Z,3.27
2019-04-25T11:52:09.111Z,4.28
2019-04-25T11:54:39.287Z,2.87
2019-04-25T11:57:09.074Z,5.90
2019-04-25T11:59:39.105Z,3.00
2019-04-25T12:02:10.816Z,4.03
2019-04-25T12:07:09.758Z,8.38
2019-04-25T12:09:39.237Z,13.53
2019-04-25T12:12:08.715Z,6.45
2019-04-25T12:14:38.592Z,7.02
2019-04-25T12:17:08.925Z,4.22
2019-04-25T12:19:39.084Z,7.15
2019-04-25T12:22:09.323Z,7.80
2019-04-25T12:24:39.424Z,4.90
2019-04-25T12:27:09.307Z,3.12
2019-04-25T12:29:39.280Z,4.34
2019-04-25T12:32:09.608Z,5.22
2019-04-25T12:34:39.313Z,2.17
2019-04-25T12:37:09.435Z,4.60
2019-04-25T12:39:39.458Z,3.08
2019-04-25T12:42:09.709Z,4.12
2019-04-25T12:44:46.255Z,3.62
2019-04-25T12:47:16.782Z,2.87
2019-04-25T12:49:46.723Z,6.13
2019-04-25T12:52:16.128Z,3.60
2019-04-25T12:54:45.526Z,6.17
2019-04-25T12:57:16.155Z,2.62
2019-04-25T12:59:46.200Z,2.65
2019-04-25T13:02:16.982Z,3.47
2019-04-25T13:04:47.621Z,5.35
2019-04-25T13:07:18.145Z,7.55
2019-04-25T13:09:48.319Z,4.97
2019-04-25T13:12:19.997Z,3.15
2019-04-25T13:14:49.626Z,7.40
2019-04-25T13:17:19.031Z,5.75
2019-04-25T13:19:48.526Z,4.60
2019-04-25T13:22:17.885Z,2.65
2019-04-25T13:24:47.350Z,1.80
2019-04-25T13:27:34.359Z,6.40
2019-04-25T13:30:24.143Z,3.70
2019-04-25T13:32:55.546Z,3.15
2019-04-25T13:35:34.343Z,8.15
2019-04-25T13:38:03.868Z,2.27
2019-04-25T13:40:33.328Z,4.80
2019-04-25T13:43:04.558Z,3.40
2019-04-25T13:45:33.958Z,4.40
2019-04-25T13:48:04.905Z,5.40
2019-04-25T13:50:34.751Z,5.87
2019-04-25T13:53:04.155Z,4.08
2019-04-25T13:55:34.506Z,4.60
2019-04-25T13:58:04.338Z,4.60
2019-04-25T14:00:34.868Z,4.12
2019-04-25T14:03:04.572Z,4.70
2019-04-25T14:05:35.339Z,5.10
2019-04-25T14:08:04.854Z,9.13
2019-04-25T14:10:34.477Z,4.47
2019-04-25T14:13:04.348Z,7.15
2019-04-25T14:15:35.152Z,8.07
2019-04-25T14:18:22.896Z,6.70
2019-04-25T14:20:54.013Z,3.02
2019-04-25T14:23:24.525Z,5.17
2019-04-25T14:25:54.822Z,6.70
2019-04-25T14:28:25.245Z,4.72
2019-04-25T14:30:55.421Z,4.07
2019-04-25T14:33:26.586Z,5.17
2019-04-25T14:35:55.978Z,5.13
2019-04-25T14:38:26.544Z,5.80
2019-04-25T14:40:57.000Z,3.08
2019-04-25T14:43:26.416Z,5.80
2019-04-25T14:45:56.373Z,8.20
2019-04-25T14:48:25.852Z,4.60
2019-04-25T14:50:55.347Z,5.15
2019-04-25T14:53:25.753Z,8.13
2019-04-25T14:55:56.831Z,3.33
2019-04-25T14:58:28.198Z,5.97
2019-04-25T15:00:57.705Z,10.05
2019-04-25T15:03:27.178Z,7.70
2019-04-25T15:05:56.572Z,3.43
2019-04-25T15:08:26.562Z,7.40
2019-04-25T15:10:57.010Z,4.90
2019-04-25T15:13:26.407Z,5.60
2019-04-25T15:15:56.989Z,4.86
2019-04-25T15:18:26.943Z,8.73
2019-04-25T15:20:57.192Z,3.72
2019-04-25T15:23:27.320Z,8.33
2019-04-25T15:25:56.821Z,10.20
2019-04-25T15:28:26.208Z,5.60
2019-04-25T15:30:55.613Z,6.35
2019-04-25T15:33:26.408Z,6.28
2019-04-25T15:36:03.712Z,3.93
2019-04-25T15:38:40.803Z,7.92
2019-04-25T15:41:14.798Z,9.10
2019-04-25T15:43:49.591Z,9.45
2019-04-25T15:46:20.754Z,3.45
2019-04-25T15:48:50.160Z,12.10
2019-04-25T15:51:19.551Z,8.64
2019-04-25T15:53:48.940Z,5.30
2019-04-25T15:56:18.414Z,5.90
2019-04-25T15:58:47.873Z,6.65
2019-04-25T16:01:17.344Z,4.97
2019-04-25T16:03:46.731Z,6.87
2019-04-25T16:06:16.194Z,7.67
2019-04-25T16:08:45.929Z,10.25
2019-04-25T16:11:15.377Z,8.07
2019-04-25T16:13:45.438Z,5.43
2019-04-25T16:16:15.397Z,6.83
2019-04-25T16:18:45.384Z,5.20
2019-04-25T16:21:15.579Z,8.98
2019-04-25T16:23:45.525Z,6.73
2019-04-25T16:26:15.355Z,7.73
2019-04-25T16:28:45.374Z,8.95
2019-04-25T16:31:17.033Z,8.30
2019-04-25T16:33:46.416Z,4.92
2019-04-25T16:36:15.823Z,4.73
2019-04-25T16:38:45.475Z,13.57
2019-04-25T16:41:15.530Z,7.20
2019-04-25T16:43:52.804Z,9.30
2019-04-25T16:46:23.082Z,10.82
2019-04-25T16:48:52.534Z,8.57
2019-04-25T16:51:22.200Z,8.38
2019-04-25T16:53:51.727Z,7.12
2019-04-25T16:56:21.177Z,7.22
2019-04-25T16:58:51.535Z,7.12
2019-04-25T17:01:21.089Z,12.03
2019-04-25T17:03:50.542Z,7.78
2019-04-25T17:06:19.922Z,10.63
2019-04-25T17:08:49.306Z,6.63
2019-04-25T17:11:18.971Z,7.40
2019-04-25T17:13:49.995Z,6.47
2019-04-25T17:16:21.009Z,3.33
2019-04-25T17:18:54.930Z,5.05
2019-04-25T17:21:24.540Z,8.58
2019-04-25T17:23:54.016Z,10.27
2019-04-25T17:26:24.237Z,5.85
2019-04-25T17:28:55.397Z,4.28
2019-04-25T17:31:43.434Z,8.18
2019-04-25T17:34:17.050Z,6.65
2019-04-25T17:36:51.027Z,4.25
2019-04-25T17:39:31.140Z,8.35
2019-04-25T17:42:01.523Z,9.27
2019-04-25T17:44:31.638Z,11.73
2019-04-25T17:47:06.460Z,11.73
2019-04-25T17:49:33.016Z,10.43
2019-04-25T17:52:02.403Z,7.27
2019-04-25T17:54:32.756Z,4.60
2019-04-25T17:57:02.445Z,4.93
2019-04-25T17:59:32.320Z,7.35
2019-04-25T18:02:03.088Z,5.67
2019-04-25T18:04:34.037Z,6.73
2019-04-25T18:07:04.715Z,13.10
2019-04-25T18:09:34.450Z,10.90
2019-04-25T18:12:05.177Z,6.35
2019-04-25T18:14:35.214Z,5.23
2019-04-25T18:17:04.942Z,4.90
2019-04-25T18:19:36.414Z,7.42
2019-04-25T18:22:07.405Z,6.08
2019-04-25T18:24:54.701Z,7.93
2019-04-25T18:27:37.769Z,7.83
2019-04-25T18:30:07.770Z,6.33
2019-04-25T18:32:39.150Z,6.42
2019-04-25T18:35:10.308Z,8.58
2019-04-25T18:37:48.620Z,4.77
2019-04-25T18:40:19.981Z,7.62
2019-04-25T18:42:51.016Z,3.92
2019-04-25T18:45:27.651Z,8.95
2019-04-25T18:47:57.041Z,6.62
2019-04-25T18:50:28.124Z,8.10
2019-04-25T18:53:17.514Z,6.27
2019-04-25T18:55:48.668Z,9.13
2019-04-25T18:58:35.676Z,10.85
2019-04-25T19:01:13.072Z,8.78
2019-04-25T19:03:49.903Z,13.47
2019-04-25T19:06:21.538Z,9.18
2019-04-25T19:08:53.234Z,8.57
2019-04-25T19:11:22.485Z,7.92
2019-04-25T19:13:51.941Z,3.47
2019-04-25T19:16:21.333Z,6.30
2019-04-25T19:18:51.600Z,6.87
2019-04-25T19:21:21.607Z,5.78
2019-04-25T19:23:51.512Z,3.90
2019-04-25T19:26:21.985Z,9.13
2019-04-25T19:28:52.032Z,6.20
2019-04-25T19:31:22.352Z,3.33
2019-04-25T19:33:52.586Z,9.75
2019-04-25T19:36:23.004Z,8.38
2019-04-25T19:38:53.058Z,3.88
2019-04-25T19:41:27.919Z,7.06
2019-04-25T19:43:59.294Z,5.03
2019-04-25T19:46:39.079Z,4.85
2019-04-25T19:49:08.897Z,2.90
2019-04-25T19:51:39.742Z,11.00
2019-04-25T19:54:09.125Z,10.80
2019-04-25T19:56:38.578Z,6.53
2019-04-25T19:59:08.113Z,6.43
2019-04-25T20:01:37.561Z,8.78
2019-04-25T20:04:14.539Z,3.83
2019-04-25T20:07:02.265Z,3.70
2019-04-25T20:09:49.409Z,7.13
2019-04-25T20:12:19.363Z,7.17
2019-04-25T20:14:49.219Z,7.85
2019-04-25T20:17:18.609Z,6.87
2019-04-25T20:19:48.457Z,4.40
2019-04-25T20:22:18.565Z,4.50
2019-04-25T20:24:48.886Z,7.40
2019-04-25T20:27:18.551Z,7.58
2019-04-25T20:29:48.586Z,5.25
2019-04-25T20:32:18.747Z,8.90
2019-04-25T20:34:49.049Z,5.28
2019-04-25T20:37:18.870Z,4.58
2019-04-25T20:39:49.417Z,4.76
2019-04-25T20:42:18.877Z,3.92
2019-04-25T20:44:49.611Z,4.88
2019-04-25T20:47:19.957Z,7.03
2019-04-25T20:49:49.368Z,4.65
2019-04-25T20:52:18.991Z,10.58
2019-04-25T20:54:49.350Z,8.13
2019-04-25T20:57:19.023Z,4.58
2019-04-25T20:59:49.345Z,8.36
2019-04-25T21:02:19.160Z,12.35
2019-04-25T21:04:50.063Z,7.28
2019-04-25T21:07:19.453Z,5.65
2019-04-25T21:09:49.929Z,6.30
2019-04-25T21:12:19.455Z,9.60
2019-04-25T21:14:59.570Z,3.45
2019-04-25T21:17:36.617Z,8.45
2019-04-25T21:20:11.221Z,6.65
2019-04-25T21:22:41.862Z,2.90
2019-04-25T21:25:11.403Z,3.57
2019-04-25T21:27:40.877Z,8.37
2019-04-25T21:30:11.386Z,8.27
2019-04-25T21:32:53.667Z,9.20
2019-04-25T21:35:23.924Z,6.80
2019-04-25T21:37:53.600Z,9.43
2019-04-25T21:40:27.289Z,7.92
2019-04-25T21:43:01.086Z,6.73
2019-04-25T21:45:30.744Z,8.47
2019-04-25T21:48:00.789Z,7.72
2019-04-25T21:53:01.301Z,7.90
2019-04-25T21:55:31.053Z,10.72
2019-04-25T21:58:00.606Z,7.70
2019-04-25T22:00:37.393Z,7.80
2019-04-25T22:03:09.009Z,4.50
2019-04-25T22:05:38.716Z,3.42
2019-04-25T22:08:08.280Z,5.30
2019-04-25T22:10:37.656Z,7.12
2019-04-25T22:13:14.864Z,4.05
2019-04-25T22:15:38.427Z,8.93
2019-04-25T22:18:08.013Z,9.07
2019-04-25T22:20:37.451Z,8.98
2019-04-25T22:23:07.183Z,4.28
2019-04-25T22:25:36.907Z,7.15
2019-04-25T22:28:07.553Z,8.28
2019-04-25T22:30:37.671Z,4.83
2019-04-25T22:33:14.664Z,3.13
2019-04-25T22:35:48.650Z,8.57
2019-04-25T22:38:18.316Z,3.17
2019-04-25T22:40:47.775Z,6.58
2019-04-25T22:43:17.312Z,6.83
2019-04-25T22:45:46.879Z,6.20
2019-04-25T22:48:17.909Z,8.50
2019-04-25T22:50:47.466Z,5.53
2019-04-25T22:53:22.717Z,4.95
2019-04-25T22:55:48.901Z,5.05
2019-04-25T22:58:18.359Z,6.17
2019-04-25T23:00:47.814Z,4.27
2019-04-25T23:03:23.407Z,6.80
2019-04-25T23:05:54.490Z,7.03
2019-04-25T23:08:24.193Z,5.60
2019-04-25T23:10:53.564Z,8.88
2019-04-25T23:13:22.951Z,8.38
2019-04-25T23:15:52.429Z,4.92
2019-04-25T23:18:22.192Z,6.97
2019-04-25T23:20:51.590Z,6.60
2019-04-25T23:23:21.192Z,5.03
2019-04-25T23:25:55.787Z,6.65
2019-04-25T23:28:27.082Z,4.62
2019-04-25T23:30:58.337Z,5.50
2019-04-25T23:33:28.681Z,4.83
2019-04-25T23:35:58.350Z,11.87
2019-04-25T23:38:27.796Z,9.70
2019-04-25T23:40:57.182Z,7.43
2019-04-25T23:43:26.758Z,6.15
2019-04-25T23:45:56.312Z,5.02
2019-04-25T23:48:25.896Z,3.50
2019-04-25T23:50:55.277Z,6.70
2019-04-25T23:53:24.663Z,8.45
2019-04-25T23:55:54.126Z,6.63
2019-04-25T23:58:23.517Z,5.97
